Constanti, Spain
Current Conditions -  °F | °C
As of 2:30 AM on Thursday 23 Oct 2014 (Local Time) from LERS Reporting Station
Clear Clear  
Wind Chill: 55°   Ceiling: Unl
Heat Index: 55°   Visibility: 6mi
Dew Point: 43°   Wind: 0mph
Humidity: 63%   Direction: NA
Pressure: 30.21"   Gusts: NA
Location:  41.15°N, 1.21°E
Report Text: LERS 230030Z AUTO 00000KT CAVOK 13/06 Q1023
Loading
Personal Weather Stations






























Interactive Weather Map
Tropical Storm Tracking
New forecast layout! Learn more

10-Day Weather Forecast

Advertisements
Track Severe Weather on mobile